Willits, CA (95490)

6:25 AM PDT on October 20, 2014 (GMT -0700)
Mendocino College Willits | Change Station
CLOSE
Current Station
Personal Weather Station
Location: Willits, CA
Elevation: 1355 ft
Nearby Weather Stations
4.2 Earthquake: Rio Dell, California (23 hours ago)  

Elev 1355 ft 39.41 °N, 123.35 °W | Updated 32 seconds ago

Overcast
Overcast
56.0 °F
Feels Like 56.0 °F
N
0.0
Wind Variable Wind from West
Gusts 0.0 mph

Today
High -- | Low -- °F
--% Chance of Precip.
Yesterday
High -- | Low -- °F
Precip. -- in
7:28 AM 6:27 PM
Waning Crescent, 11% visible
Pressure 29.89 in
Visibility 2.5 miles
Clouds Few 1600 ft
Mostly Cloudy 2100 ft
Overcast 3000 ft
Dew Point 55 °F
Humidity 96%
Rainfall 0.07 in
Snow Depth Not available.
UV 0 out of 12
Pollen 2.20 out of 12
Air Quality Not available.
Flu Activity Sporadic
SPECI KUKI 201318Z AUTO 17003KT 2 1/2SM -RA BR FEW016 BKN021 OVC030 16/14 A2989 RMK AO2 P0001 T01560139

More Conditions Fewer Conditions

Pressure 29.89 in
Visibility 2.5 miles
Clouds Few 1600 ft
Mostly Cloudy 2100 ft
Overcast 3000 ft
Dew Point 55 °F
Humidity 96%
Rainfall 0.07 in
Snow Depth Not available.
UV 0 out of 12
Pollen 2.20 out of 12
Air Quality Not available.
Flu Activity Sporadic
SPECI KUKI 201318Z AUTO 17003KT 2 1/2SM -RA BR FEW016 BKN021 OVC030 16/14 A2989 RMK AO2 P0001 T01560139

More Conditions Fewer Conditions

10-Day Weather Forecast

Almanac

Astronomy

Oct. 20, 2014 Rise Set
Actual Time 7:28 AM PDT 6:27 PM PDT
Civil Twilight 7:01 AM PDT 6:54 PM PDT
Nautical Twilight 6:30 AM PDT 7:25 PM PDT
Astronomical Twilight 5:58 AM PDT 7:56 PM PDT
Moon 4:22 AM PDT 4:51 PM PDT
Length of Visible Light 11h 52m
Length of Day
10h 58m
Waning Crescent, 11% of the Moon is Illuminated
Today
Waning Crescent
Oct 23
New
Oct 30
First Quarter
Nov 6
Full
Nov 14
Last Quarter

Today's Extremes

State Highs State Lows

Community

WunderPhotos

Upload Photos

1,763,378 photos uploaded!

Nearby

Snow Depth

Station Depth Elevation
CSS Lab 2 in 6900 ft
Independence Camp 0 in 7000 ft
Squaw Valley 0 in 8200 ft
Truckee #2 0 in 6400 ft
Tahoe City Cross 0 in 6750 ft

Earthquake Activity

City Distance Mag. Time & Date
Cobb, California 47 miles 2.5 9:25 PM PDT
2014-10-19
Rio Dell, California 80 miles 4.2 7:24 AM PDT
2014-10-19
Minimum magnitude displayed is 2.5.

Coastal Water Temperatures

Place Temperature
Arena Cove, CA 60.1 °F
North Spit, CA 57.9 °F
Point Reyes, CA 60.1 °F
San Francisco, CA 63.0 °F
Richmond, CA 64.0 °F

Nearby Weather Stations